createdAt,value
2018-03-03T00:01:21.834Z,145.10
2018-03-03T00:03:49.926Z,140.97
2018-03-03T00:06:17.971Z,146.70
2018-03-03T00:08:46.038Z,132.90
2018-03-03T00:11:14.182Z,132.47
2018-03-03T00:13:42.995Z,140.07
2018-03-03T00:16:11.069Z,138.57
2018-03-03T00:18:39.136Z,140.20
2018-03-03T00:21:07.200Z,146.97
2018-03-03T00:23:36.136Z,141.90
2018-03-03T00:26:04.184Z,139.93
2018-03-03T00:28:33.056Z,139.73
2018-03-03T00:31:01.185Z,137.03
2018-03-03T00:33:29.339Z,131.27
2018-03-03T00:35:57.418Z,147.13
2018-03-03T00:38:25.483Z,137.37
2018-03-03T00:40:53.539Z,138.90
2018-03-03T00:43:21.607Z,137.87
2018-03-03T00:45:50.418Z,142.70
2018-03-03T00:48:18.565Z,134.57
2018-03-03T00:50:46.627Z,134.63
2018-03-03T00:53:14.723Z,134.17
2018-03-03T00:55:42.789Z,145.63
2018-03-03T00:58:10.868Z,147.30
2018-03-03T01:00:38.927Z,151.70
2018-03-03T01:03:06.999Z,133.80
2018-03-03T01:05:35.068Z,128.13
2018-03-03T01:08:03.915Z,128.67
2018-03-03T01:10:32.012Z,123.77
2018-03-03T01:13:00.088Z,133.03
2018-03-03T01:15:28.249Z,126.30
2018-03-03T01:17:56.352Z,127.57
2018-03-03T01:20:25.475Z,130.60
2018-03-03T01:22:53.546Z,118.23
2018-03-03T01:25:21.617Z,123.90
2018-03-03T01:27:50.409Z,110.67
2018-03-03T01:30:18.519Z,107.63
2018-03-03T01:32:46.583Z,112.10
2018-03-03T01:35:14.885Z,110.50
2018-03-03T01:37:42.968Z,110.27
2018-03-03T01:40:11.042Z,103.53
2018-03-03T01:42:39.171Z,86.50
2018-03-03T01:45:07.207Z,74.00
2018-03-03T01:47:35.306Z,66.37
2018-03-03T01:50:03.473Z,68.53
2018-03-03T01:52:31.541Z,73.20
2018-03-03T01:54:59.622Z,63.90
2018-03-03T01:57:29.564Z,60.90
2018-03-03T01:59:57.633Z,61.87
2018-03-03T02:02:25.693Z,57.00
2018-03-03T02:04:54.536Z,64.67
2018-03-03T02:07:22.601Z,55.23
2018-03-03T02:09:50.679Z,60.03
2018-03-03T02:12:18.827Z,45.07
2018-03-03T02:14:46.889Z,44.73
2018-03-03T02:17:14.988Z,41.63
2018-03-03T02:19:43.235Z,38.07
2018-03-03T02:22:11.312Z,37.07
2018-03-03T02:24:39.438Z,38.20
2018-03-03T02:27:07.514Z,38.93
2018-03-03T02:29:35.581Z,36.60
2018-03-03T02:32:03.657Z,36.40
2018-03-03T02:34:32.473Z,40.87
2018-03-03T02:37:00.537Z,36.43
2018-03-03T02:39:28.615Z,40.53
2018-03-03T02:41:57.448Z,34.53
2018-03-03T02:44:25.504Z,33.77
2018-03-03T02:46:53.576Z,35.53
2018-03-03T02:49:22.464Z,36.63
2018-03-03T02:51:51.312Z,38.40
2018-03-03T02:54:19.371Z,35.33
2018-03-03T02:56:48.219Z,38.47
2018-03-03T02:59:16.294Z,39.63
2018-03-03T03:01:44.355Z,43.50
2018-03-03T03:04:13.187Z,36.00
2018-03-03T03:06:41.731Z,32.77
2018-03-03T03:09:09.768Z,36.57
2018-03-03T03:11:37.879Z,42.30
2018-03-03T03:14:06.819Z,37.67
2018-03-03T03:16:34.941Z,39.10
2018-03-03T03:19:03.150Z,38.90
2018-03-03T03:21:31.983Z,36.93
2018-03-03T03:24:00.059Z,44.27
2018-03-03T03:26:28.149Z,60.27
2018-03-03T03:28:56.197Z,96.83
2018-03-03T03:31:25.047Z,108.53
2018-03-03T03:33:53.211Z,94.10
2018-03-03T03:36:21.271Z,95.27
2018-03-03T03:38:49.344Z,104.53
2018-03-03T03:41:17.500Z,108.10
2018-03-03T03:43:45.568Z,92.73
2018-03-03T03:46:13.631Z,68.30
2018-03-03T03:48:41.709Z,62.83
2018-03-03T03:51:09.768Z,101.93
2018-03-03T03:53:38.630Z,106.13
2018-03-03T03:56:06.845Z,94.47
2018-03-03T03:58:34.929Z,82.20
2018-03-03T04:01:02.979Z,109.17
2018-03-03T04:03:31.060Z,102.47
2018-03-03T04:05:59.115Z,72.57
2018-03-03T04:08:27.224Z,62.53
2018-03-03T04:10:55.282Z,93.27
2018-03-03T04:13:23.357Z,98.77
2018-03-03T04:15:52.179Z,104.83
2018-03-03T04:18:21.028Z,88.43
2018-03-03T04:20:49.082Z,130.07
2018-03-03T04:23:17.209Z,127.27
2018-03-03T04:25:45.560Z,131.80
2018-03-03T04:28:13.736Z,127.10
2018-03-03T04:30:41.775Z,119.97
2018-03-03T04:33:10.642Z,123.83
2018-03-03T04:35:38.702Z,104.03
2018-03-03T04:38:06.804Z,117.00
2018-03-03T04:40:34.891Z,99.40
2018-03-03T04:43:02.968Z,74.03
2018-03-03T04:45:31.554Z,69.53
2018-03-03T04:47:59.636Z,52.93
2018-03-03T04:50:27.690Z,56.70
2018-03-03T04:52:56.036Z,47.63
2018-03-03T04:55:24.076Z,52.90
2018-03-03T04:57:52.144Z,53.60
2018-03-03T05:00:26.681Z,61.27
2018-03-03T05:06:23.419Z,71.70
2018-03-03T05:08:52.038Z,74.43
2018-03-03T05:11:20.091Z,67.50
2018-03-03T05:16:57.277Z,63.87
2018-03-03T05:19:46.894Z,65.53
2018-03-03T05:22:14.964Z,64.83
2018-03-03T05:24:49.341Z,64.00
2018-03-03T05:27:23.135Z,61.47
2018-03-03T05:29:57.408Z,67.90
2018-03-03T05:35:53.703Z,72.30
2018-03-03T05:38:28.176Z,63.17
2018-03-03T05:41:01.896Z,67.23
2018-03-03T05:43:35.913Z,66.27
2018-03-03T05:49:13.177Z,65.80
2018-03-03T05:51:43.872Z,59.07
2018-03-03T05:54:18.359Z,54.40
2018-03-03T05:56:46.431Z,52.77
2018-03-03T05:59:33.319Z,54.90
2018-03-03T06:02:07.078Z,52.67
2018-03-03T06:07:57.717Z,56.10
2018-03-03T06:10:40.681Z,62.43
2018-03-03T06:13:08.740Z,80.33
2018-03-03T06:15:36.797Z,65.07
2018-03-03T06:18:04.862Z,62.73
2018-03-03T06:20:32.997Z,64.87
2018-03-03T06:23:01.036Z,53.53
2018-03-03T06:25:29.098Z,61.97
2018-03-03T06:27:57.934Z,77.27
2018-03-03T06:30:26.000Z,69.07
2018-03-03T06:32:54.056Z,60.97
2018-03-03T06:35:22.128Z,67.93
2018-03-03T06:37:50.872Z,71.33
2018-03-03T06:40:18.951Z,65.63
2018-03-03T06:42:47.006Z,74.43
2018-03-03T06:45:15.065Z,70.10
2018-03-03T06:47:43.143Z,70.13
2018-03-03T06:50:11.238Z,75.50
2018-03-03T06:52:39.301Z,75.57
2018-03-03T06:55:07.367Z,80.40
2018-03-03T06:57:35.434Z,92.33
2018-03-03T07:00:03.517Z,103.47
2018-03-03T07:02:32.346Z,106.37
2018-03-03T07:05:00.620Z,94.17
2018-03-03T07:07:28.696Z,105.23
2018-03-03T07:09:56.754Z,122.77
2018-03-03T07:12:25.598Z,141.47
2018-03-03T07:14:57.113Z,155.00
2018-03-03T07:17:25.195Z,125.10
2018-03-03T07:19:53.257Z,116.30
2018-03-03T07:22:21.335Z,119.57
2018-03-03T07:24:49.385Z,138.43
2018-03-03T07:27:17.464Z,134.47
2018-03-03T07:29:45.541Z,123.47
2018-03-03T07:32:13.609Z,106.83
2018-03-03T07:34:42.442Z,109.13
2018-03-03T07:37:10.538Z,109.07
2018-03-03T07:39:38.585Z,94.07
2018-03-03T07:42:06.663Z,259.00
2018-03-03T07:44:35.491Z,115.73
2018-03-03T07:47:03.571Z,159.57
2018-03-03T07:49:31.625Z,134.87
2018-03-03T07:52:00.512Z,128.57
2018-03-03T07:54:28.578Z,122.23
2018-03-03T07:57:08.564Z,109.17
2018-03-03T07:59:36.613Z,107.07
2018-03-03T08:02:04.779Z,101.93
2018-03-03T08:04:32.845Z,103.53
2018-03-03T08:07:00.952Z,96.63
2018-03-03T08:09:29.019Z,91.93
2018-03-03T08:11:57.179Z,84.33
2018-03-03T08:14:26.007Z,82.27
2018-03-03T08:16:54.058Z,91.57
2018-03-03T08:19:22.887Z,80.47
2018-03-03T08:21:55.939Z,87.20
2018-03-03T08:24:24.003Z,84.27
2018-03-03T08:26:52.061Z,92.90
2018-03-03T08:29:20.132Z,82.90
2018-03-03T08:31:48.186Z,90.30
2018-03-03T08:34:16.286Z,99.40
2018-03-03T08:36:44.325Z,191.30
2018-03-03T08:39:12.404Z,159.70
2018-03-03T08:41:40.473Z,117.23
2018-03-03T08:44:08.550Z,108.63
2018-03-03T08:46:36.588Z,122.50
2018-03-03T08:49:04.652Z,129.43
2018-03-03T08:51:32.736Z,158.03
2018-03-03T08:54:00.793Z,166.07
2018-03-03T08:56:28.882Z,131.13
2018-03-03T08:58:56.952Z,119.73
2018-03-03T09:01:25.031Z,115.93
2018-03-03T09:03:53.102Z,119.20
2018-03-03T09:06:21.177Z,132.23
2018-03-03T09:08:50.418Z,101.33
2018-03-03T09:11:18.603Z,101.97
2018-03-03T09:13:46.744Z,107.43
2018-03-03T09:16:14.877Z,121.63
2018-03-03T09:18:42.988Z,110.60
2018-03-03T09:21:11.059Z,111.93
2018-03-03T09:23:39.129Z,115.40
2018-03-03T09:26:07.192Z,116.57
2018-03-03T09:28:35.325Z,107.67
2018-03-03T09:31:03.355Z,127.03
2018-03-03T09:33:31.408Z,119.13
2018-03-03T09:35:59.474Z,109.87
2018-03-03T09:38:27.528Z,113.20
2018-03-03T09:40:55.604Z,117.40
2018-03-03T09:43:23.667Z,112.87
2018-03-03T09:45:52.249Z,107.10
2018-03-03T09:48:21.067Z,120.03
2018-03-03T09:50:49.174Z,119.37
2018-03-03T09:53:17.239Z,110.77
2018-03-03T09:55:45.314Z,106.93
2018-03-03T09:58:13.355Z,108.97
2018-03-03T10:00:41.427Z,104.23
2018-03-03T10:03:09.486Z,88.73
2018-03-03T10:05:37.552Z,82.43
2018-03-03T10:08:05.606Z,75.63
2018-03-03T10:10:34.544Z,74.13
2018-03-03T10:13:02.622Z,67.13
2018-03-03T10:15:30.654Z,76.60
2018-03-03T10:17:58.704Z,75.77
2018-03-03T10:20:26.825Z,94.43
2018-03-03T10:22:55.043Z,91.33
2018-03-03T10:25:23.882Z,71.87
2018-03-03T10:27:51.940Z,74.80
2018-03-03T10:30:20.008Z,75.23
2018-03-03T10:32:48.828Z,74.40
2018-03-03T10:35:16.916Z,76.10
2018-03-03T10:37:45.007Z,72.83
2018-03-03T10:40:13.095Z,74.33
2018-03-03T10:42:41.157Z,72.80
2018-03-03T10:45:09.980Z,75.07
2018-03-03T10:47:38.047Z,74.50
2018-03-03T10:50:06.109Z,67.03
2018-03-03T10:52:34.944Z,74.50
2018-03-03T10:55:03.011Z,80.07
2018-03-03T10:57:31.349Z,86.93
2018-03-03T10:59:59.401Z,87.23
2018-03-03T11:02:27.477Z,78.20
2018-03-03T11:04:55.545Z,66.23
2018-03-03T11:07:24.376Z,62.33
2018-03-03T11:09:52.551Z,64.93
2018-03-03T11:12:20.643Z,61.10
2018-03-03T11:14:48.710Z,58.07
2018-03-03T11:17:16.788Z,56.07
2018-03-03T11:19:45.604Z,63.73
2018-03-03T11:22:14.464Z,60.10
2018-03-03T11:24:42.530Z,61.10
2018-03-03T11:27:10.601Z,62.77
2018-03-03T11:29:38.660Z,60.53
2018-03-03T11:32:06.746Z,62.43
2018-03-03T11:34:34.818Z,56.37
2018-03-03T11:37:02.895Z,48.70
2018-03-03T11:39:30.956Z,50.33
2018-03-03T11:41:59.797Z,40.40
2018-03-03T11:44:27.861Z,35.80
2018-03-03T11:46:55.941Z,29.07
2018-03-03T11:49:24.063Z,28.03
2018-03-03T11:51:52.132Z,19.27
2018-03-03T11:54:20.304Z,12.00
2018-03-03T11:56:48.384Z,12.87
2018-03-03T11:59:16.431Z,20.33
2018-03-03T12:01:44.488Z,14.60
2018-03-03T12:04:12.639Z,13.70
2018-03-03T12:06:40.710Z,16.17
2018-03-03T12:09:09.548Z,12.90
2018-03-03T12:11:37.608Z,11.83
2018-03-03T12:14:06.440Z,10.67
2018-03-03T12:16:34.505Z,9.30
2018-03-03T12:19:02.583Z,12.53
2018-03-03T12:21:30.635Z,12.33
2018-03-03T12:23:59.471Z,11.43
2018-03-03T12:26:27.546Z,11.53
2018-03-03T12:28:56.021Z,11.90
2018-03-03T12:31:24.188Z,10.53
2018-03-03T12:33:52.311Z,13.47
2018-03-03T12:36:20.369Z,11.87
2018-03-03T12:38:48.692Z,10.37
2018-03-03T12:41:16.917Z,12.77
2018-03-03T12:43:44.992Z,15.30
2018-03-03T12:46:13.072Z,13.77
2018-03-03T12:48:41.274Z,16.30
2018-03-03T12:51:09.375Z,14.73
2018-03-03T12:53:37.457Z,16.10
2018-03-03T12:56:05.571Z,16.13
2018-03-03T12:58:34.454Z,16.10
2018-03-03T13:01:02.526Z,13.13
2018-03-03T13:03:30.596Z,18.83
2018-03-03T13:05:58.689Z,17.03
2018-03-03T13:08:26.831Z,16.90
2018-03-03T13:10:55.438Z,26.07
2018-03-03T13:13:23.551Z,18.10
2018-03-03T13:15:52.290Z,19.80
2018-03-03T13:18:20.376Z,20.33
2018-03-03T13:20:50.148Z,18.30
2018-03-03T13:23:18.218Z,18.53
2018-03-03T13:25:46.295Z,20.47
2018-03-03T13:28:14.392Z,16.50
2018-03-03T13:30:42.442Z,21.60
2018-03-03T13:33:10.753Z,19.57
2018-03-03T13:35:38.848Z,21.17
2018-03-03T13:38:06.901Z,21.97
2018-03-03T13:40:34.964Z,16.50
2018-03-03T13:43:03.033Z,16.17
2018-03-03T13:45:31.884Z,17.10
2018-03-03T13:48:01.085Z,18.00
2018-03-03T13:50:29.168Z,16.93
2018-03-03T13:52:57.235Z,20.63
2018-03-03T13:55:25.581Z,18.10
2018-03-03T13:57:53.680Z,14.17
2018-03-03T14:00:22.502Z,18.03
2018-03-03T14:02:51.276Z,17.97
2018-03-03T14:05:19.323Z,15.93
2018-03-03T14:07:47.385Z,18.13
2018-03-03T14:10:15.429Z,17.57
2018-03-03T14:12:43.485Z,24.37
2018-03-03T14:15:11.527Z,18.30
2018-03-03T14:17:39.567Z,15.00
2018-03-03T14:20:07.621Z,17.17
2018-03-03T14:22:35.684Z,18.57
2018-03-03T14:25:03.731Z,15.70
2018-03-03T14:27:32.547Z,17.20
2018-03-03T14:30:00.630Z,15.53
2018-03-03T14:32:29.432Z,17.20
2018-03-03T14:34:57.480Z,20.47
2018-03-03T14:37:25.606Z,20.63
2018-03-03T14:39:53.721Z,20.63
2018-03-03T14:42:21.777Z,19.13
2018-03-03T14:44:49.933Z,19.20
2018-03-03T14:47:18.743Z,16.60
2018-03-03T14:49:47.576Z,20.57
2018-03-03T14:52:15.639Z,18.93
2018-03-03T14:54:43.882Z,20.03
2018-03-03T14:57:11.948Z,19.17
2018-03-03T14:59:39.991Z,20.97
2018-03-03T15:02:08.040Z,20.57
2018-03-03T15:04:36.100Z,17.00
2018-03-03T15:07:04.140Z,26.43
2018-03-03T15:09:32.224Z,25.93
2018-03-03T15:12:01.130Z,27.73
2018-03-03T15:14:29.196Z,20.93
2018-03-03T15:16:57.256Z,21.33
2018-03-03T15:19:25.351Z,23.47
2018-03-03T15:21:53.430Z,21.80
2018-03-03T15:24:21.490Z,24.53
2018-03-03T15:26:50.568Z,23.33
2018-03-03T15:29:18.666Z,16.67
2018-03-03T15:31:46.812Z,16.43
2018-03-03T15:34:14.842Z,20.07
2018-03-03T15:36:42.896Z,19.40
2018-03-03T15:39:11.022Z,17.00
2018-03-03T15:41:39.094Z,15.93
2018-03-03T15:44:07.187Z,15.77
2018-03-03T15:46:35.378Z,23.13
2018-03-03T15:49:03.509Z,22.37
2018-03-03T15:51:31.572Z,21.73
2018-03-03T15:54:00.501Z,22.47
2018-03-03T15:56:28.662Z,25.37
2018-03-03T15:58:56.710Z,27.67
2018-03-03T16:01:24.762Z,20.60
2018-03-03T16:03:52.866Z,23.17
2018-03-03T16:06:20.910Z,24.97
2018-03-03T16:08:49.732Z,26.60
2018-03-03T16:11:17.778Z,23.57
2018-03-03T16:13:46.596Z,26.50
2018-03-03T16:16:14.680Z,23.13
2018-03-03T16:18:42.707Z,23.60
2018-03-03T16:21:10.777Z,29.77
2018-03-03T16:23:38.841Z,24.13
2018-03-03T16:26:06.912Z,21.67
2018-03-03T16:28:35.729Z,22.40
2018-03-03T16:31:04.048Z,28.47
2018-03-03T16:33:32.209Z,22.07
2018-03-03T16:36:01.033Z,25.57
2018-03-03T16:38:29.079Z,23.63
2018-03-03T16:40:58.213Z,21.53
2018-03-03T16:43:26.262Z,15.27
2018-03-03T16:45:54.318Z,18.87
2018-03-03T16:48:22.379Z,25.03
2018-03-03T16:50:50.422Z,21.50
2018-03-03T16:53:18.472Z,24.93
2018-03-03T16:55:46.617Z,22.47
2018-03-03T16:58:14.627Z,22.93
2018-03-03T17:00:42.692Z,18.03
2018-03-03T17:03:11.157Z,19.80
2018-03-03T17:05:39.965Z,17.43
2018-03-03T17:08:08.096Z,33.33
2018-03-03T17:10:36.190Z,29.20
2018-03-03T17:13:05.036Z,55.13
2018-03-03T17:15:33.208Z,33.27
2018-03-03T17:18:01.378Z,27.43
2018-03-03T17:20:29.442Z,25.13
2018-03-03T17:22:58.306Z,25.70
2018-03-03T17:25:26.348Z,31.73
2018-03-03T17:27:55.132Z,26.07
2018-03-03T17:30:24.029Z,30.53
2018-03-03T17:32:52.850Z,34.37
2018-03-03T17:35:20.948Z,26.00
2018-03-03T17:37:49.017Z,29.40
2018-03-03T17:40:17.185Z,29.57
2018-03-03T17:42:45.208Z,29.47
2018-03-03T17:45:13.271Z,33.60
2018-03-03T17:47:41.380Z,29.03
2018-03-03T17:50:10.245Z,30.60
2018-03-03T17:52:39.129Z,38.40
2018-03-03T17:55:07.191Z,30.97
2018-03-03T17:57:35.248Z,35.83
2018-03-03T18:00:03.308Z,36.50
2018-03-03T18:02:32.290Z,41.37
2018-03-03T18:05:00.348Z,45.00
2018-03-03T18:07:28.427Z,41.63
2018-03-03T18:09:56.482Z,41.33
2018-03-03T18:12:24.547Z,37.93
2018-03-03T18:14:53.408Z,44.40
2018-03-03T18:17:21.435Z,39.23
2018-03-03T18:19:49.618Z,44.50
2018-03-03T18:22:17.634Z,39.37
2018-03-03T18:24:45.708Z,45.00
2018-03-03T18:27:13.798Z,46.67
2018-03-03T18:29:41.896Z,43.77
2018-03-03T18:32:09.988Z,46.10
2018-03-03T18:34:38.038Z,49.63
2018-03-03T18:37:06.203Z,50.47
2018-03-03T18:39:34.343Z,49.83
2018-03-03T18:42:02.419Z,52.73
2018-03-03T18:44:30.512Z,57.63
2018-03-03T18:46:58.531Z,52.63
2018-03-03T18:49:27.352Z,54.97
2018-03-03T18:51:55.400Z,52.63
2018-03-03T18:54:23.481Z,53.20
2018-03-03T18:56:52.311Z,56.20
2018-03-03T18:59:20.366Z,59.77
2018-03-03T19:01:49.235Z,60.67
2018-03-03T19:04:18.399Z,64.33
2018-03-03T19:06:46.446Z,67.10
2018-03-03T19:09:14.486Z,60.77
2018-03-03T19:11:42.548Z,57.73
2018-03-03T19:14:10.629Z,59.80
2018-03-03T19:16:39.460Z,58.73
2018-03-03T19:19:07.523Z,55.63
2018-03-03T19:21:35.574Z,56.50
2018-03-03T19:24:04.408Z,58.97
2018-03-03T19:26:32.505Z,58.50
2018-03-03T19:29:01.383Z,64.20
2018-03-03T19:31:29.431Z,65.23
2018-03-03T19:33:57.471Z,67.23
2018-03-03T19:36:25.560Z,69.47
2018-03-03T19:38:53.727Z,66.13
2018-03-03T19:41:22.105Z,97.93
2018-03-03T19:43:51.172Z,68.67
2018-03-03T19:46:19.247Z,67.27
2018-03-03T19:48:47.445Z,81.13
2018-03-03T19:51:15.570Z,66.07
2018-03-03T19:53:44.428Z,69.00
2018-03-03T19:56:13.283Z,67.83
2018-03-03T19:58:41.357Z,91.73
2018-03-03T20:01:10.224Z,77.13
2018-03-03T20:03:38.369Z,67.03
2018-03-03T20:06:06.437Z,55.40
2018-03-03T20:08:34.553Z,53.43
2018-03-03T20:11:02.890Z,46.57
2018-03-03T20:13:30.927Z,48.53
2018-03-03T20:15:59.025Z,45.50
2018-03-03T20:18:27.055Z,50.70
2018-03-03T20:20:55.134Z,50.77
2018-03-03T20:23:23.179Z,53.67
2018-03-03T20:25:51.225Z,50.57
2018-03-03T20:28:19.362Z,54.73
2018-03-03T20:30:47.435Z,56.50
2018-03-03T20:33:15.586Z,54.70
2018-03-03T20:35:43.750Z,48.00
2018-03-03T20:38:11.874Z,52.67
2018-03-03T20:40:39.919Z,51.87
2018-03-03T20:43:08.101Z,51.47
2018-03-03T20:45:36.959Z,67.33
2018-03-03T20:48:05.740Z,75.60
2018-03-03T20:50:33.847Z,65.33
2018-03-03T20:53:01.894Z,51.77
2018-03-03T20:55:30.018Z,52.47
2018-03-03T20:57:58.064Z,44.00
2018-03-03T21:00:26.148Z,43.13
2018-03-03T21:02:54.494Z,47.90
2018-03-03T21:05:22.624Z,42.30
2018-03-03T21:07:50.694Z,41.67
2018-03-03T21:10:18.763Z,40.10
2018-03-03T21:12:47.159Z,39.23
2018-03-03T21:15:15.970Z,43.13
2018-03-03T21:17:44.036Z,36.20
2018-03-03T21:20:12.104Z,36.57
2018-03-03T21:22:40.957Z,35.40
2018-03-03T21:25:09.073Z,32.03
2018-03-03T21:27:37.149Z,34.37
2018-03-03T21:30:05.265Z,36.03
2018-03-03T21:32:34.141Z,34.53
2018-03-03T21:35:02.452Z,49.67
2018-03-03T21:37:34.275Z,48.67
2018-03-03T21:40:02.336Z,34.17
2018-03-03T21:42:31.191Z,37.47
2018-03-03T21:44:59.259Z,30.60
2018-03-03T21:47:27.344Z,33.53
2018-03-03T21:49:55.580Z,38.13
2018-03-03T21:52:24.401Z,33.00
2018-03-03T21:54:52.460Z,53.37
2018-03-03T21:57:20.528Z,79.33
2018-03-03T21:59:49.363Z,54.47
2018-03-03T22:02:17.644Z,28.90
2018-03-03T22:04:45.771Z,24.30
2018-03-03T22:07:13.814Z,23.87
2018-03-03T22:09:41.880Z,22.73
2018-03-03T22:12:10.703Z,24.43
2018-03-03T22:14:38.755Z,23.50
2018-03-03T22:17:07.584Z,23.63
2018-03-03T22:19:35.644Z,23.20
2018-03-03T22:22:04.778Z,20.93
2018-03-03T22:24:32.824Z,21.13
2018-03-03T22:27:01.656Z,20.60
2018-03-03T22:29:29.716Z,18.50
2018-03-03T22:31:58.528Z,24.03
2018-03-03T22:34:26.619Z,23.87
2018-03-03T22:36:54.667Z,23.67
2018-03-03T22:39:22.722Z,22.93
2018-03-03T22:41:50.794Z,20.53
2018-03-03T22:44:18.848Z,20.07
2018-03-03T22:46:46.914Z,19.97
2018-03-03T22:49:15.810Z,20.80
2018-03-03T22:51:45.567Z,19.67
2018-03-03T22:54:13.623Z,17.83
2018-03-03T22:56:42.450Z,19.50
2018-03-03T22:59:10.517Z,22.63
2018-03-03T23:01:39.344Z,19.93
2018-03-03T23:04:07.615Z,18.70
2018-03-03T23:06:35.708Z,19.67
2018-03-03T23:09:03.958Z,16.40
2018-03-03T23:11:32.797Z,16.20
2018-03-03T23:14:01.029Z,16.10
2018-03-03T23:16:29.100Z,16.87
2018-03-03T23:18:57.169Z,127.53
2018-03-03T23:21:25.223Z,41.03
2018-03-03T23:23:53.385Z,28.07
2018-03-03T23:26:21.613Z,18.97
2018-03-03T23:28:49.678Z,21.70
2018-03-03T23:31:17.743Z,18.43
2018-03-03T23:33:46.568Z,18.97
2018-03-03T23:36:14.606Z,20.10
2018-03-03T23:38:42.658Z,18.73
2018-03-03T23:41:10.721Z,72.80
2018-03-03T23:43:38.905Z,72.00
2018-03-03T23:46:06.967Z,48.17
2018-03-03T23:48:35.808Z,23.27
2018-03-03T23:51:03.864Z,25.97
2018-03-03T23:53:31.915Z,37.73
2018-03-03T23:55:59.971Z,19.43
2018-03-03T23:58:28.025Z,42.83
